Time;durP1;ratioP1;P1;durP2;ratioP2;P2;SDS_P1;SDS_P2;PMS_P1;PMS_P2;Temp;Humidity;BMP_temperature;BMP_pressure;BME280_temperature;BME280_humidity;BME280_pressure;Samples;Min_cycle;Max_cycle;Signal;HPM_P1;HPM_P2
2022/04/09 00:00:49;;;;;;;7.53;2.67;;;;;;;;;;5107586;28;20026;-69
2022/04/09 00:03:16;;;;;;;13.40;2.80;;;;;;;;;;5107730;28;20050;-69
2022/04/09 00:05:43;;;;;;;8.57;2.63;;;;;;;;;;5112834;28;20024;-69
2022/04/09 00:08:10;;;;;;;12.27;2.97;;;;;;;;;;5112787;28;20039;-69
2022/04/09 00:10:36;;;;;;;6.53;2.37;;;;;;;;;;5112623;28;20440;-69
2022/04/09 00:13:03;;;;;;;6.80;1.70;;;;;;;;;;5112508;28;20032;-69
2022/04/09 00:15:30;;;;;;;6.63;2.30;;;;;;;;;;5112306;28;20047;-69
2022/04/09 00:17:56;;;;;;;6.87;2.80;;;;;;;;;;5107311;28;20024;-69
2022/04/09 00:20:23;;;;;;;8.37;2.77;;;;;;;;;;5107565;28;20051;-69
2022/04/09 00:22:50;;;;;;;6.53;2.33;;;;;;;;;;5107576;28;20032;-69
2022/04/09 00:25:21;;;;;;;6.20;2.73;;;;;;;;;;5109343;28;20043;-69
2022/04/09 00:27:48;;;;;;;7.40;2.57;;;;;;;;;;5115028;28;20454;-69
2022/04/09 00:30:15;;;;;;;4.57;2.07;;;;;;;;;;5116602;28;20050;-68
2022/04/09 00:32:41;;;;;;;28.87;5.10;;;;;;;;;;5116790;28;20023;-69
2022/04/09 00:35:08;;;;;;;5.97;2.87;;;;;;;;;;5114996;28;20027;-69
2022/04/09 00:37:45;;;;;;;13.20;2.63;;;;;;;;;;5116475;28;20027;-69
2022/04/09 00:40:12;;;;;;;6.40;2.00;;;;;;;;;;5111244;28;20036;-69
2022/04/09 00:42:42;;;;;;;4.73;2.03;;;;;;;;;;5110832;28;20028;-69
2022/04/09 00:45:09;;;;;;;4.83;2.00;;;;;;;;;;5092858;28;20439;-68
2022/04/09 00:47:37;;;;;;;6.00;2.20;;;;;;;;;;5110250;28;20378;-69
2022/04/09 00:50:04;;;;;;;3.43;1.80;;;;;;;;;;5115209;28;20020;-69
2022/04/09 00:52:34;;;;;;;11.70;2.97;;;;;;;;;;5116265;28;20024;-69
2022/04/09 00:55:04;;;;;;;6.67;1.97;;;;;;;;;;5115780;28;20482;-69
2022/04/09 00:57:35;;;;;;;9.63;2.27;;;;;;;;;;5115784;28;20041;-69
2022/04/09 01:00:11;;;;;;;7.10;2.33;;;;;;;;;;5115960;28;20038;-68
2022/04/09 01:02:41;;;;;;;6.23;2.30;;;;;;;;;;5110264;28;20020;-69
2022/04/09 01:05:08;;;;;;;7.17;2.30;;;;;;;;;;5110586;28;20028;-68
2022/04/09 01:07:35;;;;;;;4.17;1.80;;;;;;;;;;5110696;28;20069;-68
2022/04/09 01:10:03;;;;;;;10.70;2.50;;;;;;;;;;5110146;28;20028;-69
2022/04/09 01:12:30;;;;;;;5.20;1.90;;;;;;;;;;5114318;28;20082;-69
2022/04/09 01:14:57;;;;;;;6.93;2.13;;;;;;;;;;5115580;28;20057;-69
2022/04/09 01:17:23;;;;;;;4.50;1.97;;;;;;;;;;5115517;28;20051;-69
2022/04/09 01:19:50;;;;;;;7.57;2.17;;;;;;;;;;5115433;28;20051;-68
2022/04/09 01:22:17;;;;;;;5.60;2.10;;;;;;;;;;5115421;28;20116;-69
2022/04/09 01:24:43;;;;;;;5.67;2.17;;;;;;;;;;5110353;28;20030;-68
2022/04/09 01:27:10;;;;;;;7.13;2.07;;;;;;;;;;5109964;28;20027;-68
2022/04/09 01:29:37;;;;;;;6.57;1.97;;;;;;;;;;5109945;28;20035;-68
2022/04/09 01:32:04;;;;;;;6.50;2.27;;;;;;;;;;5110165;28;20478;-68
2022/04/09 01:34:31;;;;;;;4.87;2.23;;;;;;;;;;5114060;28;20023;-69
2022/04/09 01:36:57;;;;;;;7.63;2.20;;;;;;;;;;5114458;28;20103;-68
2022/04/09 01:39:24;;;;;;;8.83;2.40;;;;;;;;;;5115210;28;20199;-68
2022/04/09 01:41:51;;;;;;;4.70;2.37;;;;;;;;;;5114940;28;20023;-68
2022/04/09 01:44:17;;;;;;;8.33;2.83;;;;;;;;;;5115018;28;20023;-68
2022/04/09 01:46:44;;;;;;;10.70;3.13;;;;;;;;;;5110485;28;20034;-68
2022/04/09 01:49:12;;;;;;;11.40;2.53;;;;;;;;;;5109706;28;20028;-68
2022/04/09 01:51:39;;;;;;;6.50;2.57;;;;;;;;;;5109346;28;20028;-69
2022/04/09 01:54:05;;;;;;;5.53;2.60;;;;;;;;;;5109581;28;20366;-68
2022/04/09 01:56:33;;;;;;;8.13;2.20;;;;;;;;;;5112989;28;20044;-68
2022/04/09 01:58:59;;;;;;;7.87;2.70;;;;;;;;;;5114969;28;20134;-68
2022/04/09 02:01:26;;;;;;;6.33;1.87;;;;;;;;;;5114733;28;20474;-68
2022/04/09 02:03:53;;;;;;;9.33;2.53;;;;;;;;;;5114307;28;20110;-69
2022/04/09 02:06:19;;;;;;;5.63;2.07;;;;;;;;;;5114671;28;20470;-68
2022/04/09 02:08:46;;;;;;;8.43;2.23;;;;;;;;;;5110397;28;20027;-68
2022/04/09 02:11:14;;;;;;;8.57;2.40;;;;;;;;;;5109175;28;20030;-68
2022/04/09 02:13:40;;;;;;;3.87;1.73;;;;;;;;;;5108981;28;20353;-68
2022/04/09 02:16:07;;;;;;;7.40;1.90;;;;;;;;;;5109266;28;20026;-68
2022/04/09 02:18:34;;;;;;;6.23;2.20;;;;;;;;;;5112241;28;20019;-68
2022/04/09 02:21:01;;;;;;;5.77;2.13;;;;;;;;;;5114089;28;20100;-68
2022/04/09 02:23:27;;;;;;;9.40;2.33;;;;;;;;;;5114184;28;20027;-68
2022/04/09 02:25:54;;;;;;;7.63;2.50;;;;;;;;;;5113819;28;20053;-68
2022/04/09 02:28:21;;;;;;;3.80;1.90;;;;;;;;;;5114387;28;20031;-67
2022/04/09 02:30:47;;;;;;;7.17;2.40;;;;;;;;;;5111540;28;20038;-68
2022/04/09 02:33:14;;;;;;;6.17;2.17;;;;;;;;;;5109155;28;20023;-67
2022/04/09 02:35:41;;;;;;;5.20;2.03;;;;;;;;;;5108705;28;20111;-67
2022/04/09 02:38:09;;;;;;;5.53;2.10;;;;;;;;;;5109057;28;20016;-67
2022/04/09 02:40:36;;;;;;;6.77;1.83;;;;;;;;;;5111236;28;20020;-67
2022/04/09 02:43:02;;;;;;;5.63;2.23;;;;;;;;;;5113672;28;20500;-67
2022/04/09 02:45:29;;;;;;;5.87;2.20;;;;;;;;;;5114241;28;20436;-67
2022/04/09 02:47:56;;;;;;;3.77;1.80;;;;;;;;;;5113369;28;20047;-67
2022/04/09 02:50:22;;;;;;;4.70;2.10;;;;;;;;;;5113470;28;20382;-67
2022/04/09 02:52:49;;;;;;;3.70;1.77;;;;;;;;;;5111647;28;20027;-67
2022/04/09 02:55:16;;;;;;;8.37;2.07;;;;;;;;;;5108526;28;20455;-67
2022/04/09 02:57:43;;;;;;;4.60;1.67;;;;;;;;;;5108719;28;20099;-67
2022/04/09 03:00:13;;;;;;;4.73;1.77;;;;;;;;;;5108383;28;20053;-67
2022/04/09 03:02:41;;;;;;;5.60;2.13;;;;;;;;;;5110233;28;20043;-67
2022/04/09 03:05:08;;;;;;;8.63;2.33;;;;;;;;;;5113410;28;20024;-67
2022/04/09 03:07:35;;;;;;;6.47;1.63;;;;;;;;;;5113629;28;20028;-67
2022/04/09 03:10:02;;;;;;;5.93;1.87;;;;;;;;;;5113585;28;20045;-67
2022/04/09 03:12:29;;;;;;;5.07;1.60;;;;;;;;;;5113233;28;20092;-67
2022/04/09 03:14:56;;;;;;;6.80;2.00;;;;;;;;;;5111260;28;20074;-67
2022/04/09 03:17:22;;;;;;;7.43;1.90;;;;;;;;;;5108437;28;20031;-67
2022/04/09 03:19:49;;;;;;;6.33;1.50;;;;;;;;;;5108454;28;20082;-68
2022/04/09 03:22:16;;;;;;;7.83;2.00;;;;;;;;;;5108333;28;20015;-67
2022/04/09 03:24:42;;;;;;;6.13;1.83;;;;;;;;;;5109347;28;20400;-67
2022/04/09 03:27:09;;;;;;;2.57;1.47;;;;;;;;;;5113193;28;20016;-66
2022/04/09 03:29:36;;;;;;;6.53;2.00;;;;;;;;;;5112965;28;20035;-66
2022/04/09 03:32:03;;;;;;;8.10;1.60;;;;;;;;;;5112776;28;20023;-66
2022/04/09 03:34:29;;;;;;;8.47;1.67;;;;;;;;;;5113223;28;20016;-67
2022/04/09 03:36:56;;;;;;;6.03;1.60;;;;;;;;;;5107436;28;20460;-67
2022/04/09 03:39:23;;;;;;;6.53;1.80;;;;;;;;;;5087807;28;20421;-66
2022/04/09 03:41:50;;;;;;;9.87;3.17;;;;;;;;;;5095511;28;20448;-66
2022/04/09 03:44:17;;;;;;;6.97;1.63;;;;;;;;;;5108091;28;20023;-66
2022/04/09 03:46:43;;;;;;;7.63;1.93;;;;;;;;;;5108381;28;20028;-66
2022/04/09 03:49:10;;;;;;;6.50;2.57;;;;;;;;;;5112446;28;20059;-67
2022/04/09 03:51:37;;;;;;;6.03;2.33;;;;;;;;;;5113054;28;20103;-66
2022/04/09 03:54:04;;;;;;;5.93;1.83;;;;;;;;;;5112823;28;20031;-67
2022/04/09 03:56:30;;;;;;;6.27;2.13;;;;;;;;;;5113018;28;20016;-66
2022/04/09 03:58:57;;;;;;;8.40;2.27;;;;;;;;;;5111948;28;20026;-66
2022/04/09 04:01:24;;;;;;;6.47;2.30;;;;;;;;;;5107566;28;20030;-67
2022/04/09 04:03:52;;;;;;;10.20;2.97;;;;;;;;;;5107647;28;20020;-67
2022/04/09 04:06:19;;;;;;;4.17;1.90;;;;;;;;;;5107485;28;20012;-66
2022/04/09 04:08:45;;;;;;;7.37;1.97;;;;;;;;;;5107770;28;20034;-66
2022/04/09 04:11:12;;;;;;;6.80;1.90;;;;;;;;;;5112561;28;20060;-67
2022/04/09 04:13:39;;;;;;;6.40;1.77;;;;;;;;;;5112901;28;20419;-66
2022/04/09 04:16:06;;;;;;;6.90;1.57;;;;;;;;;;5112725;28;20016;-66
2022/04/09 04:18:33;;;;;;;3.53;1.27;;;;;;;;;;5112442;28;20036;-66
2022/04/09 04:20:59;;;;;;;3.47;1.53;;;;;;;;;;5112107;28;20015;-67
2022/04/09 04:23:26;;;;;;;5.17;1.50;;;;;;;;;;5107574;28;20028;-66
2022/04/09 04:25:53;;;;;;;5.73;1.40;;;;;;;;;;5107663;28;20054;-66
2022/04/09 04:28:20;;;;;;;3.90;1.97;;;;;;;;;;5107433;28;20118;-66
2022/04/09 04:30:46;;;;;;;5.23;1.77;;;;;;;;;;5107070;28;20433;-64
2022/04/09 04:33:13;;;;;;;4.20;1.50;;;;;;;;;;5111572;28;20036;-64
2022/04/09 04:35:40;;;;;;;6.60;1.40;;;;;;;;;;5111323;28;20077;-65
2022/04/09 04:38:06;;;;;;;5.57;1.40;;;;;;;;;;5111597;28;20016;-66
2022/04/09 04:40:33;;;;;;;2.30;1.03;;;;;;;;;;5111762;28;20382;-65
2022/04/09 04:43:00;;;;;;;4.90;1.50;;;;;;;;;;5111907;28;20036;-65
2022/04/09 04:45:26;;;;;;;2.63;1.30;;;;;;;;;;5106822;28;20024;-64
2022/04/09 04:47:53;;;;;;;4.13;1.20;;;;;;;;;;5107151;28;20098;-65
2022/04/09 04:50:20;;;;;;;3.00;1.03;;;;;;;;;;5107045;28;20031;-64
2022/04/09 04:52:47;;;;;;;2.73;1.03;;;;;;;;;;5107187;28;20056;-65
2022/04/09 04:55:14;;;;;;;4.60;1.40;;;;;;;;;;5110706;28;20016;-66
2022/04/09 04:57:44;;;;;;;3.90;1.10;;;;;;;;;;5112501;28;20019;-65
2022/04/09 05:00:11;;;;;;;4.23;1.20;;;;;;;;;;5112296;28;20023;-65
2022/04/09 05:02:38;;;;;;;4.37;1.40;;;;;;;;;;5112391;28;20028;-65
2022/04/09 05:05:05;;;;;;;1.83;1.00;;;;;;;;;;5112161;28;20015;-64
2022/04/09 05:07:41;;;;;;;5.70;1.20;;;;;;;;;;5107262;28;20062;-64
2022/04/09 05:10:09;;;;;;;6.37;1.07;;;;;;;;;;5106815;28;20047;-65
2022/04/09 05:12:36;;;;;;;4.40;1.50;;;;;;;;;;5108952;28;20082;-68
2022/04/09 05:15:07;;;;;;;2.57;1.17;;;;;;;;;;5109085;28;20493;-65
2022/04/09 05:17:34;;;;;;;3.20;1.10;;;;;;;;;;5112353;28;20466;-65
2022/04/09 05:20:04;;;;;;;3.43;1.67;;;;;;;;;;5113361;28;20019;-65
2022/04/09 05:22:36;;;;;;;5.20;1.50;;;;;;;;;;5113576;28;20024;-66
2022/04/09 05:25:03;;;;;;;3.47;1.70;;;;;;;;;;5113440;28;20024;-65
2022/04/09 05:27:30;;;;;;;5.33;1.53;;;;;;;;;;5113268;28;20072;-65
2022/04/09 05:29:57;;;;;;;3.13;1.43;;;;;;;;;;5109345;28;20032;-65
2022/04/09 05:32:23;;;;;;;3.83;1.97;;;;;;;;;;5109830;28;20027;-65
2022/04/09 05:34:50;;;;;;;3.90;1.77;;;;;;;;;;5109780;28;20051;-65
2022/04/09 05:37:17;;;;;;;4.07;1.70;;;;;;;;;;5091489;28;20378;-65
2022/04/09 05:39:44;;;;;;;2.77;1.20;;;;;;;;;;5113489;28;20063;-65
2022/04/09 05:42:11;;;;;;;2.93;1.20;;;;;;;;;;5115041;28;20020;-65
2022/04/09 05:44:38;;;;;;;5.23;1.33;;;;;;;;;;5114682;28;20500;-65
2022/04/09 05:47:05;;;;;;;3.77;0.90;;;;;;;;;;5114713;28;20046;-65
2022/04/09 05:49:32;;;;;;;3.23;0.90;;;;;;;;;;5114778;28;20074;-65
2022/04/09 05:51:59;;;;;;;2.47;1.10;;;;;;;;;;5109880;28;20092;-65
2022/04/09 05:54:26;;;;;;;3.90;1.40;;;;;;;;;;5109044;28;20023;-66
2022/04/09 05:56:52;;;;;;;3.90;1.00;;;;;;;;;;5109317;28;20019;-65
2022/04/09 05:59:19;;;;;;;5.70;1.33;;;;;;;;;;5109691;28;20949;-65
2022/04/09 06:01:46;;;;;;;5.20;1.80;;;;;;;;;;5113051;28;20027;-65
2022/04/09 06:04:16;;;;;;;2.17;1.33;;;;;;;;;;5114739;28;20106;-65
2022/04/09 06:06:43;;;;;;;4.60;1.33;;;;;;;;;;5114544;28;20085;-65
2022/04/09 06:09:09;;;;;;;5.07;1.53;;;;;;;;;;5113971;28;20032;-65
2022/04/09 06:11:36;;;;;;;4.90;1.97;;;;;;;;;;5113934;28;20092;-65
2022/04/09 06:14:03;;;;;;;5.00;1.63;;;;;;;;;;5110427;28;20043;-65
2022/04/09 06:16:30;;;;;;;5.77;1.70;;;;;;;;;;5108812;28;20032;-65
2022/04/09 06:18:57;;;;;;;3.73;1.93;;;;;;;;;;5109085;28;20041;-65
2022/04/09 06:21:24;;;;;;;5.67;2.20;;;;;;;;;;5109049;28;20027;-65
2022/04/09 06:23:51;;;;;;;3.73;1.70;;;;;;;;;;5112253;28;20438;-65
2022/04/09 06:26:17;;;;;;;6.83;2.20;;;;;;;;;;5113603;28;20027;-67
2022/04/09 06:28:44;;;;;;;5.40;2.00;;;;;;;;;;5114436;28;20036;-65
2022/04/09 06:31:11;;;;;;;2.77;1.73;;;;;;;;;;5113991;28;20035;-65
2022/04/09 06:33:38;;;;;;;3.80;1.60;;;;;;;;;;5114162;28;20426;-65
2022/04/09 06:36:04;;;;;;;4.67;1.57;;;;;;;;;;5110109;28;20023;-65
2022/04/09 06:38:31;;;;;;;4.37;1.33;;;;;;;;;;5108558;28;20024;-65
2022/04/09 06:40:58;;;;;;;2.93;1.53;;;;;;;;;;5108056;28;20019;-65
2022/04/09 06:43:26;;;;;;;2.17;1.27;;;;;;;;;;5108447;28;20080;-65
2022/04/09 06:45:53;;;;;;;4.20;1.37;;;;;;;;;;5110836;28;20040;-65
2022/04/09 06:48:20;;;;;;;7.00;1.80;;;;;;;;;;5113634;28;20034;-65
2022/04/09 06:50:46;;;;;;;2.47;1.53;;;;;;;;;;5113454;28;20076;-65
2022/04/09 06:53:13;;;;;;;3.13;1.90;;;;;;;;;;5113370;28;20486;-65
2022/04/09 06:55:41;;;;;;;3.50;1.97;;;;;;;;;;5113502;28;20099;-65
2022/04/09 06:58:08;;;;;;;3.03;2.00;;;;;;;;;;5110314;28;20035;-65
2022/04/09 07:00:35;;;;;;;4.90;1.50;;;;;;;;;;5107792;28;20069;-65
2022/04/09 07:03:02;;;;;;;5.50;1.40;;;;;;;;;;5108155;28;20448;-65
2022/04/09 07:05:29;;;;;;;5.33;1.60;;;;;;;;;;5107869;28;20270;-65
2022/04/09 07:07:55;;;;;;;3.50;1.50;;;;;;;;;;5110437;28;20385;-65
2022/04/09 07:10:22;;;;;;;3.77;1.50;;;;;;;;;;5112946;28;20102;-65
2022/04/09 07:12:49;;;;;;;2.17;1.27;;;;;;;;;;5112717;28;20047;-65
2022/04/09 07:15:15;;;;;;;2.67;1.30;;;;;;;;;;5112855;28;20317;-66
2022/04/09 07:17:43;;;;;;;1.70;1.17;;;;;;;;;;5112891;28;20112;-65
2022/04/09 07:20:10;;;;;;;4.63;1.40;;;;;;;;;;5110470;28;20016;-65
2022/04/09 07:22:38;;;;;;;3.97;1.20;;;;;;;;;;5107766;28;20028;-65
2022/04/09 07:25:08;;;;;;;2.40;1.23;;;;;;;;;;5107433;28;20073;-65
2022/04/09 07:27:36;;;;;;;4.00;1.30;;;;;;;;;;5107282;28;20539;-65
2022/04/09 07:30:04;;;;;;;4.37;1.20;;;;;;;;;;5109276;28;20312;-65
2022/04/09 07:32:30;;;;;;;3.03;1.20;;;;;;;;;;5113211;28;20023;-65
2022/04/09 07:34:57;;;;;;;1.83;1.03;;;;;;;;;;5112192;28;20287;-65
2022/04/09 07:37:24;;;;;;;2.27;1.10;;;;;;;;;;5112645;28;20275;-65
2022/04/09 07:39:51;;;;;;;5.17;0.90;;;;;;;;;;5112776;28;20354;-64
2022/04/09 07:42:19;;;;;;;4.77;1.33;;;;;;;;;;5110030;28;20279;-65
2022/04/09 07:44:45;;;;;;;2.20;1.20;;;;;;;;;;5107271;28;20268;-65
2022/04/09 07:47:12;;;;;;;3.30;1.03;;;;;;;;;;5107174;28;20283;-64
2022/04/09 07:49:39;;;;;;;5.97;1.23;;;;;;;;;;5107484;28;20287;-66
2022/04/09 07:52:05;;;;;;;2.83;1.30;;;;;;;;;;5109056;28;20324;-64
2022/04/09 07:54:32;;;;;;;6.40;1.60;;;;;;;;;;5112819;28;20859;-64
2022/04/09 07:56:59;;;;;;;7.33;1.37;;;;;;;;;;5112497;28;20357;-64
2022/04/09 07:59:26;;;;;;;2.47;1.30;;;;;;;;;;5112405;28;20260;-64
2022/04/09 08:01:53;;;;;;;5.77;1.30;;;;;;;;;;5112224;28;20267;-66
2022/04/09 08:04:19;;;;;;;2.20;1.13;;;;;;;;;;5110818;28;20276;-65
2022/04/09 08:06:46;;;;;;;5.00;1.40;;;;;;;;;;5107441;28;20693;-65
2022/04/09 08:09:13;;;;;;;4.60;1.57;;;;;;;;;;5107244;28;21178;-64
2022/04/09 08:11:40;;;;;;;3.23;1.30;;;;;;;;;;5107338;28;20294;-65
2022/04/09 08:14:06;;;;;;;3.90;1.00;;;;;;;;;;5107875;28;20268;-64
2022/04/09 08:16:33;;;;;;;2.97;1.30;;;;;;;;;;5112320;28;20286;-64
2022/04/09 08:19:02;;;;;;;5.73;2.00;;;;;;;;;;5112032;28;20610;-66
2022/04/09 08:21:28;;;;;;;5.43;2.40;;;;;;;;;;5111986;28;20622;-64
2022/04/09 08:23:55;;;;;;;4.20;1.93;;;;;;;;;;5112574;28;20263;-65
2022/04/09 08:26:22;;;;;;;5.87;2.40;;;;;;;;;;5111095;28;20275;-64
2022/04/09 08:28:49;;;;;;;4.37;1.93;;;;;;;;;;5107126;28;20280;-64
2022/04/09 08:31:15;;;;;;;3.77;1.73;;;;;;;;;;5107127;28;20304;-65
2022/04/09 08:33:42;;;;;;;6.03;2.00;;;;;;;;;;5107033;28;20267;-64
2022/04/09 08:36:09;;;;;;;4.07;1.73;;;;;;;;;;5106310;28;20618;-65
2022/04/09 08:38:35;;;;;;;4.97;1.70;;;;;;;;;;5112290;28;20360;-64
2022/04/09 08:41:03;;;;;;;3.13;1.40;;;;;;;;;;5112283;28;20264;-64
2022/04/09 08:43:30;;;;;;;4.23;1.77;;;;;;;;;;5112184;28;20734;-64
2022/04/09 08:46:00;;;;;;;3.17;1.70;;;;;;;;;;5111912;28;20800;-64
2022/04/09 08:48:27;;;;;;;4.70;1.87;;;;;;;;;;5114598;28;20284;-64
2022/04/09 08:50:54;;;;;;;5.40;1.50;;;;;;;;;;5110380;28;20667;-65
2022/04/09 08:53:21;;;;;;;6.47;1.70;;;;;;;;;;5110494;28;20272;-65
2022/04/09 08:55:48;;;;;;;2.97;1.57;;;;;;;;;;5110261;28;20268;-65
2022/04/09 08:58:15;;;;;;;4.47;1.57;;;;;;;;;;5110930;28;20966;-64
2022/04/09 09:00:45;;;;;;;4.70;1.80;;;;;;;;;;5115788;28;20299;-64
2022/04/09 09:03:14;;;;;;;4.87;1.50;;;;;;;;;;5115687;28;20260;-64
2022/04/09 09:05:42;;;;;;;3.73;1.70;;;;;;;;;;5115285;28;20268;-65
2022/04/09 09:08:10;;;;;;;3.90;1.80;;;;;;;;;;5115576;28;20299;-64
2022/04/09 09:10:38;;;;;;;3.20;1.60;;;;;;;;;;5114860;28;20750;-64
2022/04/09 09:13:08;;;;;;;4.00;1.80;;;;;;;;;;5110514;28;20260;-64
2022/04/09 09:15:53;;;;;;;4.10;1.83;;;;;;;;;;5110230;28;20267;-65
2022/04/09 09:18:24;;;;;;;6.10;2.05;;;;;;;;;;5109665;28;20395;-64
2022/04/09 09:20:55;;;;;;;3.50;1.60;;;;;;;;;;5110720;28;20141;-65
2022/04/09 09:23:22;;;;;;;3.53;1.50;;;;;;;;;;5115704;28;20313;-64
2022/04/09 09:25:49;;;;;;;6.17;1.60;;;;;;;;;;5115341;28;20611;-65
2022/04/09 09:28:23;;;;;;;4.67;1.40;;;;;;;;;;5115418;28;20737;-64
2022/04/09 09:30:49;;;;;;;3.43;1.30;;;;;;;;;;5115180;28;20775;-64
2022/04/09 09:33:16;;;;;;;6.80;1.80;;;;;;;;;;5113456;28;20363;-64
2022/04/09 09:35:50;;;;;;;4.67;1.27;;;;;;;;;;5109693;28;20325;-64
2022/04/09 09:38:29;;;;;;;3.67;1.63;;;;;;;;;;5109890;28;20602;-64
2022/04/09 09:40:56;;;;;;;2.87;1.53;;;;;;;;;;5109758;28;20274;-66
2022/04/09 09:43:24;;;;;;;2.57;1.40;;;;;;;;;;5111015;28;20275;-64
2022/04/09 09:45:52;;;;;;;2.30;1.20;;;;;;;;;;5114550;28;20266;-64
2022/04/09 09:48:23;;;;;;;3.50;1.57;;;;;;;;;;5114935;28;20276;-64
2022/04/09 09:50:50;;;;;;;2.30;1.03;;;;;;;;;;5114803;28;20672;-64
2022/04/09 09:53:16;;;;;;;1.60;0.90;;;;;;;;;;5115077;28;20252;-64
2022/04/09 09:55:46;;;;;;;2.93;1.27;;;;;;;;;;5112290;28;20270;-65
2022/04/09 09:58:17;;;;;;;3.40;1.50;;;;;;;;;;5109108;28;20252;-64
2022/04/09 10:00:44;;;;;;;4.03;1.40;;;;;;;;;;5109213;28;20295;-64
2022/04/09 10:03:14;;;;;;;3.40;1.63;;;;;;;;;;5109651;28;20761;-65
2022/04/09 10:05:43;;;;;;;3.70;1.47;;;;;;;;;;5110798;28;20266;-64
2022/04/09 10:08:10;;;;;;;2.90;1.30;;;;;;;;;;5114521;28;20268;-65
2022/04/09 10:10:37;;;;;;;2.53;1.30;;;;;;;;;;5113594;28;20256;-64
2022/04/09 10:13:05;;;;;;;2.67;1.40;;;;;;;;;;5114277;28;20865;-64
2022/04/09 10:15:32;;;;;;;6.17;1.40;;;;;;;;;;5114381;28;20618;-64
2022/04/09 10:18:00;;;;;;;5.20;1.33;;;;;;;;;;5112050;28;20267;-64
2022/04/09 10:20:28;;;;;;;3.83;1.73;;;;;;;;;;5108951;28;20351;-65
2022/04/09 10:22:59;;;;;;;5.17;1.57;;;;;;;;;;5108557;28;20272;-64
2022/04/09 10:25:32;;;;;;;2.63;1.13;;;;;;;;;;5108918;28;20260;-64
2022/04/09 10:28:03;;;;;;;4.77;1.57;;;;;;;;;;5110786;28;20268;-65
2022/04/09 10:30:30;;;;;;;3.13;1.40;;;;;;;;;;5114238;28;20264;-64
2022/04/09 10:32:58;;;;;;;2.90;1.30;;;;;;;;;;5114308;28;20300;-64
2022/04/09 10:35:25;;;;;;;3.93;1.83;;;;;;;;;;5113511;28;20272;-64
2022/04/09 10:38:22;;;;;;;5.07;2.10;;;;;;;;;;5112547;28;20605;-64
2022/04/09 10:40:58;;;;;;;3.13;1.50;;;;;;;;;;5093620;28;20268;-64
2022/04/09 10:43:24;;;;;;;3.17;1.83;;;;;;;;;;5108243;28;20259;-65
2022/04/09 10:46:05;;;;;;;3.63;1.93;;;;;;;;;;5108123;28;20381;-64
2022/04/09 10:48:32;;;;;;;7.37;1.60;;;;;;;;;;5108233;28;20291;-64
2022/04/09 10:51:01;;;;;;;1.73;1.13;;;;;;;;;;5111770;28;20307;-64
2022/04/09 10:53:29;;;;;;;6.60;2.13;;;;;;;;;;5113483;28;20259;-64
2022/04/09 10:56:20;;;;;;;3.27;1.30;;;;;;;;;;5113657;28;20260;-65
2022/04/09 10:59:05;;;;;;;3.33;1.20;;;;;;;;;;5113913;28;20259;-64
2022/04/09 11:01:50;;;;;;;6.80;1.40;;;;;;;;;;5113236;28;20626;-64
2022/04/09 11:07:10;;;;;;;5.00;1.90;;;;;;;;;;5108081;28;20109;-64
2022/04/09 11:09:57;;;;;;;3.37;1.73;;;;;;;;;;5106972;28;20306;-65
2022/04/09 11:12:25;;;;;;;6.70;1.97;;;;;;;;;;5109776;28;20300;-64
2022/04/09 11:14:54;;;;;;;7.40;2.10;;;;;;;;;;5113481;28;20329;-64
2022/04/09 11:17:27;;;;;;;8.50;2.00;;;;;;;;;;5113158;28;20275;-64
2022/04/09 11:19:55;;;;;;;6.10;1.50;;;;;;;;;;5112784;28;20264;-64
2022/04/09 11:22:22;;;;;;;3.40;1.87;;;;;;;;;;5112736;28;20734;-64
2022/04/09 11:24:48;;;;;;;4.23;1.90;;;;;;;;;;5110395;28;20761;-64
2022/04/09 11:27:15;;;;;;;5.13;2.40;;;;;;;;;;5107638;28;20256;-64
2022/04/09 11:29:43;;;;;;;6.43;2.13;;;;;;;;;;5107651;28;20379;-64
2022/04/09 11:32:20;;;;;;;3.83;1.60;;;;;;;;;;5107630;28;20380;-64
2022/04/09 11:34:47;;;;;;;5.70;2.37;;;;;;;;;;5109655;28;20307;-64
2022/04/09 11:37:14;;;;;;;3.70;1.80;;;;;;;;;;5112640;28;20355;-64
2022/04/09 11:39:41;;;;;;;4.60;2.10;;;;;;;;;;5112837;28;20264;-64
2022/04/09 11:42:08;;;;;;;5.17;1.97;;;;;;;;;;5112648;28;20754;-64
2022/04/09 11:44:36;;;;;;;8.93;2.30;;;;;;;;;;5112205;28;20332;-64
2022/04/09 11:47:09;;;;;;;3.93;1.80;;;;;;;;;;5110137;28;20592;-65
2022/04/09 11:49:36;;;;;;;3.93;2.10;;;;;;;;;;5107535;28;20677;-64
2022/04/09 11:52:04;;;;;;;5.57;2.23;;;;;;;;;;5107076;28;20260;-64
2022/04/09 11:54:34;;;;;;;4.07;2.00;;;;;;;;;;5107086;28;20299;-64
2022/04/09 11:57:01;;;;;;;4.50;2.03;;;;;;;;;;5109407;28;20347;-63
2022/04/09 11:59:31;;;;;;;5.57;1.47;;;;;;;;;;5112810;28;20255;-64
2022/04/09 12:01:58;;;;;;;5.57;1.80;;;;;;;;;;5112079;28;20295;-64
2022/04/09 12:04:32;;;;;;;3.90;1.70;;;;;;;;;;5112502;28;20252;-64
2022/04/09 12:07:01;;;;;;;6.47;1.90;;;;;;;;;;5112599;28;20317;-64
2022/04/09 12:09:28;;;;;;;5.87;2.10;;;;;;;;;;5109705;28;20046;-64
2022/04/09 12:11:54;;;;;;;5.63;2.30;;;;;;;;;;5107029;28;20267;-64
2022/04/09 12:14:21;;;;;;;5.70;2.07;;;;;;;;;;5106898;28;20260;-65
2022/04/09 12:16:48;;;;;;;4.53;1.90;;;;;;;;;;5106863;28;20272;-64
2022/04/09 12:19:15;;;;;;;10.23;2.33;;;;;;;;;;5109482;28;20268;-64
2022/04/09 12:21:42;;;;;;;4.70;2.10;;;;;;;;;;5115028;28;20283;-64
2022/04/09 12:24:10;;;;;;;11.17;2.10;;;;;;;;;;5116436;28;20347;-64
2022/04/09 12:26:44;;;;;;;7.07;2.53;;;;;;;;;;5116266;28;20276;-64
2022/04/09 12:29:22;;;;;;;6.33;2.37;;;;;;;;;;5116191;28;20359;-64
2022/04/09 12:31:53;;;;;;;4.30;2.10;;;;;;;;;;5113062;28;20271;-64
2022/04/09 12:34:20;;;;;;;5.40;2.10;;;;;;;;;;5111110;28;20252;-64
2022/04/09 12:37:06;;;;;;;9.43;2.50;;;;;;;;;;5110903;28;20270;-64
2022/04/09 12:39:37;;;;;;;8.07;3.17;;;;;;;;;;5110886;28;20734;-64
2022/04/09 12:42:04;;;;;;;8.80;2.33;;;;;;;;;;5114206;28;20107;-64
2022/04/09 12:44:35;;;;;;;6.70;2.50;;;;;;;;;;5116427;28;20301;-64
2022/04/09 12:47:02;;;;;;;5.20;2.27;;;;;;;;;;5115790;28;20274;-64
2022/04/09 12:49:30;;;;;;;5.73;2.50;;;;;;;;;;5116043;28;20816;-64
2022/04/09 12:52:00;;;;;;;6.80;3.03;;;;;;;;;;5115490;28;20288;-64
2022/04/09 12:54:31;;;;;;;8.30;3.00;;;;;;;;;;5111759;28;20272;-64
2022/04/09 12:57:05;;;;;;;7.03;2.67;;;;;;;;;;5110584;28;20306;-64
2022/04/09 12:59:32;;;;;;;15.27;3.13;;;;;;;;;;5110511;28;20282;-64
2022/04/09 13:01:59;;;;;;;8.43;3.40;;;;;;;;;;5110407;28;20372;-64
2022/04/09 13:04:26;;;;;;;8.67;2.70;;;;;;;;;;5114086;28;20334;-65
2022/04/09 13:06:52;;;;;;;6.97;3.13;;;;;;;;;;5115461;28;20326;-64
2022/04/09 13:09:19;;;;;;;7.63;3.30;;;;;;;;;;5115726;28;20345;-64
2022/04/09 13:11:46;;;;;;;9.90;3.17;;;;;;;;;;5115664;28;20259;-64
2022/04/09 13:14:13;;;;;;;16.23;4.23;;;;;;;;;;5115537;28;20264;-64
2022/04/09 13:16:39;;;;;;;8.73;4.00;;;;;;;;;;5111461;28;20301;-64
2022/04/09 13:19:06;;;;;;;11.50;4.60;;;;;;;;;;5109872;28;20294;-65
2022/04/09 13:21:33;;;;;;;14.20;4.50;;;;;;;;;;5109963;28;20618;-64
2022/04/09 13:24:00;;;;;;;11.53;3.30;;;;;;;;;;5109946;28;20268;-64
2022/04/09 13:26:26;;;;;;;8.73;2.97;;;;;;;;;;5112808;28;20264;-64
2022/04/09 13:28:53;;;;;;;10.40;3.77;;;;;;;;;;5114992;28;20280;-65
2022/04/09 13:31:20;;;;;;;8.00;3.67;;;;;;;;;;5115481;28;20256;-64
2022/04/09 13:33:47;;;;;;;12.53;3.27;;;;;;;;;;5114118;28;20755;-64
2022/04/09 13:36:14;;;;;;;11.47;4.30;;;;;;;;;;5114994;28;20264;-64
2022/04/09 13:38:41;;;;;;;7.87;3.17;;;;;;;;;;5111433;28;20814;-64
2022/04/09 13:41:07;;;;;;;12.87;3.80;;;;;;;;;;5110099;28;20648;-65
2022/04/09 13:43:34;;;;;;;8.87;3.60;;;;;;;;;;5109156;28;20055;-65
2022/04/09 13:46:01;;;;;;;14.87;4.53;;;;;;;;;;5109318;28;20020;-64
2022/04/09 13:48:28;;;;;;;8.80;3.73;;;;;;;;;;5112544;28;20032;-65
2022/04/09 13:50:54;;;;;;;8.87;3.13;;;;;;;;;;5114666;28;20023;-64
2022/04/09 13:53:21;;;;;;;8.57;2.90;;;;;;;;;;5114810;28;20099;-65
2022/04/09 13:55:48;;;;;;;5.80;2.77;;;;;;;;;;5115019;28;20054;-65
2022/04/09 13:58:14;;;;;;;6.13;3.17;;;;;;;;;;5114755;28;20020;-65
2022/04/09 14:00:41;;;;;;;9.87;3.80;;;;;;;;;;5111057;28;20542;-65
2022/04/09 14:03:08;;;;;;;9.03;3.87;;;;;;;;;;5109452;28;20501;-64
2022/04/09 14:05:34;;;;;;;7.17;3.27;;;;;;;;;;5109256;28;20047;-65
2022/04/09 14:08:01;;;;;;;8.37;3.30;;;;;;;;;;5109075;28;20019;-65
2022/04/09 14:10:28;;;;;;;6.33;2.70;;;;;;;;;;5111994;28;20042;-65
2022/04/09 14:12:57;;;;;;;8.53;2.53;;;;;;;;;;5114506;28;20024;-65
2022/04/09 14:15:24;;;;;;;8.13;2.80;;;;;;;;;;5112410;28;20396;-64
2022/04/09 14:17:51;;;;;;;6.60;3.03;;;;;;;;;;5113792;28;20062;-63
2022/04/09 14:20:18;;;;;;;5.77;2.60;;;;;;;;;;5114240;28;20027;-65
2022/04/09 14:22:45;;;;;;;6.67;3.40;;;;;;;;;;5110844;28;20020;-65
2022/04/09 14:25:12;;;;;;;17.27;4.00;;;;;;;;;;5109103;28;20024;-64
2022/04/09 14:27:38;;;;;;;6.10;3.07;;;;;;;;;;5108931;28;20050;-65
2022/04/09 14:30:05;;;;;;;11.90;2.83;;;;;;;;;;5109062;28;20031;-65
2022/04/09 14:32:32;;;;;;;7.13;3.23;;;;;;;;;;5111348;28;20028;-67
2022/04/09 14:34:59;;;;;;;11.13;3.67;;;;;;;;;;5113914;28;20516;-65
2022/04/09 14:37:27;;;;;;;6.63;2.93;;;;;;;;;;5113542;28;20374;-65
2022/04/09 14:39:56;;;;;;;8.13;3.03;;;;;;;;;;5114139;28;20564;-65
2022/04/09 14:42:22;;;;;;;5.33;3.03;;;;;;;;;;5113893;28;20126;-66
2022/04/09 14:44:49;;;;;;;5.00;2.57;;;;;;;;;;5110811;28;20366;-67
2022/04/09 14:47:16;;;;;;;7.43;2.93;;;;;;;;;;5108816;28;20028;-65
2022/04/09 14:49:43;;;;;;;6.50;2.70;;;;;;;;;;5108527;28;20032;-66